Bradley, South Carolina
Current Conditions -  °F | °C
As of 9:56 PM on Friday 19 Dec 2014 (Local Time) from KGRD Reporting Station
Clear Clear  
Wind Chill: 46°   Ceiling: Unl
Heat Index: 46°   Visibility: 10mi
Dew Point: 38°   Wind: 0mph
Humidity: 73%   Direction: NA
Pressure: 30.16"   Gusts: NA
Location:  34.05°N, 82.24°W
Report Text: KGRD 200256Z AUTO 00000KT 10SM CLR 08/03 A3016 RMK AO2 SLP212 T00780033 51009
Loading
Personal Weather Stations






























Interactive Weather Map New forecast layout! Learn more

10-Day Weather Forecast

Advertisements
Track Severe Weather on mobile